createdAt,value
2023-09-30T00:00:44.966Z,24.67
2023-09-30T00:03:12.362Z,24.33
2023-09-30T00:05:39.484Z,25.67
2023-09-30T00:08:06.332Z,23.67
2023-09-30T00:10:32.897Z,26.67
2023-09-30T00:13:00.011Z,24.00
2023-09-30T00:15:26.649Z,27.00
2023-09-30T00:17:53.117Z,24.00
2023-09-30T00:20:21.610Z,24.33
2023-09-30T00:22:48.117Z,24.67
2023-09-30T00:25:14.963Z,22.33
2023-09-30T00:27:41.516Z,24.33
2023-09-30T00:30:08.447Z,24.33
2023-09-30T00:32:35.111Z,24.67
2023-09-30T00:35:04.787Z,24.00
2023-09-30T00:37:31.231Z,26.00
2023-09-30T00:39:57.880Z,27.67
2023-09-30T00:42:24.493Z,26.33
2023-09-30T00:44:51.001Z,28.00
2023-09-30T00:47:17.851Z,28.00
2023-09-30T00:49:44.602Z,26.33
2023-09-30T00:52:11.547Z,23.67
2023-09-30T00:54:39.218Z,27.00
2023-09-30T00:57:05.860Z,26.00
2023-09-30T00:59:33.633Z,24.00
2023-09-30T01:02:01.611Z,27.00
2023-09-30T01:04:29.042Z,24.00
2023-09-30T01:06:55.620Z,27.33
2023-09-30T01:09:22.292Z,26.33
2023-09-30T01:11:49.134Z,19.67
2023-09-30T01:14:31.032Z,26.00
2023-09-30T01:16:57.824Z,26.00
2023-09-30T01:19:27.590Z,22.00
2023-09-30T01:22:06.855Z,26.67
2023-09-30T01:24:39.694Z,26.67
2023-09-30T01:27:06.214Z,28.00
2023-09-30T01:29:40.141Z,25.00
2023-09-30T01:32:10.788Z,24.67
2023-09-30T01:34:37.704Z,25.00
2023-09-30T01:37:04.393Z,25.67
2023-09-30T01:39:35.119Z,27.00
2023-09-30T01:42:01.776Z,26.67
2023-09-30T01:44:28.671Z,21.33
2023-09-30T01:46:55.402Z,26.00
2023-09-30T01:49:25.325Z,25.00
2023-09-30T01:51:51.931Z,26.67
2023-09-30T01:54:18.615Z,25.67
2023-09-30T01:56:45.133Z,26.00
2023-09-30T01:59:11.701Z,24.33
2023-09-30T02:01:38.451Z,25.00
2023-09-30T02:04:07.808Z,23.33
2023-09-30T02:06:35.058Z,24.00
2023-09-30T02:09:02.061Z,28.00
2023-09-30T02:11:29.157Z,25.00
2023-09-30T02:13:56.180Z,20.33
2023-09-30T02:16:24.195Z,24.33
2023-09-30T02:18:52.127Z,25.67
2023-09-30T02:21:18.656Z,23.75
2023-09-30T02:23:49.256Z,26.00
2023-09-30T02:26:18.586Z,25.00
2023-09-30T02:28:45.244Z,26.00
2023-09-30T02:31:15.158Z,23.00
2023-09-30T02:33:41.657Z,25.00
2023-09-30T02:36:08.837Z,23.67
2023-09-30T02:38:35.688Z,26.00
2023-09-30T02:41:03.845Z,25.75
2023-09-30T02:43:30.548Z,23.67
2023-09-30T02:45:57.026Z,26.00
2023-09-30T02:48:23.650Z,25.33
2023-09-30T02:50:50.254Z,25.00
2023-09-30T02:53:16.919Z,23.67
2023-09-30T02:55:43.609Z,24.25
2023-09-30T02:58:10.345Z,25.00
2023-09-30T03:00:37.007Z,24.00
2023-09-30T03:03:04.124Z,26.33
2023-09-30T03:05:34.677Z,25.67
2023-09-30T03:08:02.044Z,26.33
2023-09-30T03:10:30.244Z,28.00
2023-09-30T03:12:57.177Z,24.33
2023-09-30T03:15:24.700Z,24.00
2023-09-30T03:17:53.812Z,25.00
2023-09-30T03:20:21.891Z,23.67
2023-09-30T03:22:48.745Z,23.67
2023-09-30T03:25:18.488Z,24.00
2023-09-30T03:27:47.430Z,24.67
2023-09-30T03:30:17.774Z,26.67
2023-09-30T03:32:44.623Z,26.67
2023-09-30T03:35:12.113Z,26.33
2023-09-30T03:37:38.849Z,27.00
2023-09-30T03:40:14.754Z,23.00
2023-09-30T03:42:44.048Z,25.33
2023-09-30T03:45:10.948Z,25.33
2023-09-30T03:47:38.333Z,27.00
2023-09-30T03:50:05.728Z,26.00
2023-09-30T03:52:35.392Z,26.00
2023-09-30T03:55:05.663Z,26.67
2023-09-30T03:57:35.681Z,26.33
2023-09-30T04:00:02.106Z,27.00
2023-09-30T04:02:28.888Z,25.00
2023-09-30T04:04:57.228Z,26.00
2023-09-30T04:07:28.481Z,26.00
2023-09-30T04:09:55.909Z,25.67
2023-09-30T04:12:24.625Z,26.33
2023-09-30T04:14:51.871Z,23.33
2023-09-30T04:17:18.361Z,27.00
2023-09-30T04:19:44.844Z,24.33
2023-09-30T04:22:11.368Z,24.67
2023-09-30T04:24:37.760Z,28.67
2023-09-30T04:27:06.271Z,25.00
2023-09-30T04:29:32.836Z,27.00
2023-09-30T04:31:59.810Z,27.00
2023-09-30T04:34:26.445Z,26.00
2023-09-30T04:36:53.489Z,27.33
2023-09-30T04:39:20.055Z,29.00
2023-09-30T04:41:48.180Z,26.33
2023-09-30T04:44:15.047Z,24.33
2023-09-30T04:46:41.867Z,26.67
2023-09-30T04:49:08.841Z,28.00
2023-09-30T04:51:35.499Z,28.33
2023-09-30T04:54:03.344Z,28.75
2023-09-30T04:56:30.074Z,29.00
2023-09-30T04:58:57.082Z,29.00
2023-09-30T05:01:23.621Z,27.00
2023-09-30T05:03:50.792Z,27.33
2023-09-30T05:06:18.182Z,28.00
2023-09-30T05:08:47.267Z,25.33
2023-09-30T05:11:13.882Z,27.33
2023-09-30T05:13:40.396Z,27.00
2023-09-30T05:16:08.574Z,27.67
2023-09-30T05:18:35.222Z,24.33
2023-09-30T05:21:01.810Z,27.00
2023-09-30T05:23:28.253Z,24.33
2023-09-30T05:25:54.864Z,25.00
2023-09-30T05:28:22.062Z,24.00
2023-09-30T05:30:48.722Z,26.00
2023-09-30T05:33:15.719Z,27.00
2023-09-30T05:35:42.726Z,0.00
2023-09-30T05:38:09.478Z,26.00
2023-09-30T05:40:36.058Z,17.00
2023-09-30T05:43:02.553Z,23.75
2023-09-30T05:45:31.805Z,23.50
2023-09-30T05:48:00.363Z,24.25
2023-09-30T05:50:28.017Z,23.00
2023-09-30T05:52:56.486Z,22.75
2023-09-30T05:55:23.687Z,22.75
2023-09-30T05:57:51.138Z,22.75
2023-09-30T06:00:44.245Z,21.50
2023-09-30T06:03:12.015Z,22.75
2023-09-30T06:05:42.287Z,23.75
2023-09-30T06:08:11.635Z,21.50
2023-09-30T06:10:44.015Z,23.00
2023-09-30T06:13:11.269Z,23.00
2023-09-30T06:15:41.684Z,23.25
2023-09-30T06:18:08.980Z,23.00
2023-09-30T06:20:35.444Z,22.75
2023-09-30T06:23:01.959Z,28.00
2023-09-30T06:25:28.943Z,26.75
2023-09-30T06:27:58.400Z,23.50
2023-09-30T06:30:32.154Z,21.75
2023-09-30T06:33:01.299Z,21.50
2023-09-30T06:35:28.700Z,23.50
2023-09-30T06:37:55.223Z,23.00
2023-09-30T06:40:21.770Z,21.50
2023-09-30T06:42:48.333Z,19.75
2023-09-30T06:45:15.008Z,21.00
2023-09-30T06:47:42.536Z,21.00
2023-09-30T06:50:10.385Z,19.00
2023-09-30T06:52:37.505Z,20.00
2023-09-30T06:55:05.817Z,22.00
2023-09-30T06:57:36.138Z,18.75
2023-09-30T07:00:13.014Z,21.75
2023-09-30T07:02:41.380Z,19.00
2023-09-30T07:05:12.265Z,19.50
2023-09-30T07:07:38.859Z,21.75
2023-09-30T07:10:06.469Z,20.75
2023-09-30T07:12:36.569Z,21.00
2023-09-30T07:15:04.317Z,19.75
2023-09-30T07:17:31.484Z,20.75
2023-09-30T07:19:58.060Z,20.75
2023-09-30T07:22:34.873Z,19.25
2023-09-30T07:25:10.413Z,22.50
2023-09-30T07:27:37.094Z,19.50
2023-09-30T07:30:04.085Z,20.75
2023-09-30T07:32:30.525Z,21.25
2023-09-30T07:34:57.136Z,22.00
2023-09-30T07:37:23.537Z,20.50
2023-09-30T07:39:50.516Z,22.00
2023-09-30T07:42:18.368Z,20.25
2023-09-30T07:44:44.848Z,22.25
2023-09-30T07:47:11.503Z,18.50
2023-09-30T07:49:39.249Z,21.25
2023-09-30T07:52:05.780Z,21.00
2023-09-30T07:54:32.501Z,23.25
2023-09-30T07:57:00.227Z,24.25
2023-09-30T07:59:27.601Z,23.00
2023-09-30T08:01:54.262Z,22.00
2023-09-30T08:04:20.780Z,21.75
2023-09-30T08:06:47.447Z,24.50
2023-09-30T08:09:17.012Z,25.25
2023-09-30T08:11:44.662Z,26.00
2023-09-30T08:14:11.368Z,24.00
2023-09-30T08:16:38.432Z,26.00
2023-09-30T08:19:05.465Z,24.50
2023-09-30T08:21:32.363Z,29.00
2023-09-30T08:23:59.316Z,25.50
2023-09-30T08:26:25.881Z,24.75
2023-09-30T08:28:52.422Z,23.25
2023-09-30T08:31:18.998Z,24.00
2023-09-30T08:33:46.913Z,23.50
2023-09-30T08:36:13.497Z,22.25
2023-09-30T08:38:41.453Z,21.00
2023-09-30T08:41:08.559Z,22.25
2023-09-30T08:43:45.008Z,24.00
2023-09-30T08:46:12.136Z,23.00
2023-09-30T08:48:38.675Z,21.00
2023-09-30T08:51:05.308Z,23.25
2023-09-30T08:53:32.012Z,21.50
2023-09-30T08:56:01.068Z,21.25
2023-09-30T08:58:28.358Z,23.00
2023-09-30T09:00:54.979Z,23.25
2023-09-30T09:03:21.962Z,21.00
2023-09-30T09:05:56.399Z,21.00
2023-09-30T09:08:25.103Z,22.50
2023-09-30T09:10:55.875Z,21.75
2023-09-30T09:13:22.523Z,21.75
2023-09-30T09:15:49.083Z,19.50
2023-09-30T09:18:33.317Z,20.75
2023-09-30T09:21:16.172Z,19.25
2023-09-30T09:23:46.879Z,5.75
2023-09-30T09:26:36.216Z,15.25
2023-09-30T09:29:04.686Z,18.00
2023-09-30T09:31:33.137Z,16.50
2023-09-30T09:34:01.106Z,15.00
2023-09-30T09:36:44.614Z,17.25
2023-09-30T09:39:14.700Z,17.25
2023-09-30T09:41:54.108Z,16.75
2023-09-30T09:44:23.006Z,16.25
2023-09-30T09:46:51.370Z,14.50
2023-09-30T09:49:19.044Z,16.25
2023-09-30T09:51:49.695Z,15.50
2023-09-30T09:54:17.125Z,14.00
2023-09-30T09:56:45.779Z,14.75
2023-09-30T09:59:15.558Z,15.75
2023-09-30T10:01:42.618Z,14.50
2023-09-30T10:04:11.879Z,13.50
2023-09-30T10:06:41.348Z,14.25
2023-09-30T10:09:10.182Z,13.50
2023-09-30T10:11:37.342Z,14.75
2023-09-30T10:14:13.097Z,13.25
2023-09-30T10:16:41.183Z,15.00
2023-09-30T10:19:13.749Z,13.75
2023-09-30T10:21:43.103Z,16.00
2023-09-30T10:24:24.726Z,14.00
2023-09-30T10:27:30.558Z,13.25
2023-09-30T10:30:03.574Z,13.00
2023-09-30T10:32:48.786Z,14.50
2023-09-30T10:35:15.324Z,9.25
2023-09-30T10:37:41.861Z,8.50
2023-09-30T10:40:10.528Z,5.75
2023-09-30T10:42:47.116Z,3.60
2023-09-30T10:45:32.629Z,3.50
2023-09-30T10:47:59.164Z,3.20
2023-09-30T10:50:45.568Z,2.50
2023-09-30T10:53:12.426Z,2.25
2023-09-30T10:55:38.886Z,3.00
2023-09-30T10:58:05.346Z,2.00
2023-09-30T11:00:31.932Z,2.00
2023-09-30T11:03:00.764Z,3.00
2023-09-30T11:05:52.564Z,4.00
2023-09-30T11:08:18.523Z,3.00
2023-09-30T11:10:51.985Z,3.75
2023-09-30T11:13:19.459Z,4.00
2023-09-30T11:15:46.293Z,3.00
2023-09-30T11:18:19.434Z,4.00
2023-09-30T11:20:46.177Z,3.50
2023-09-30T11:23:13.169Z,3.00
2023-09-30T11:25:41.146Z,3.75
2023-09-30T11:28:20.239Z,2.50
2023-09-30T11:30:56.164Z,3.00
2023-09-30T11:33:23.804Z,2.00
2023-09-30T11:36:16.482Z,2.25
2023-09-30T11:38:45.750Z,2.00
2023-09-30T11:41:12.220Z,3.00
2023-09-30T11:43:40.119Z,3.00
2023-09-30T11:46:07.524Z,2.60
2023-09-30T11:48:34.159Z,2.00
2023-09-30T11:51:03.404Z,2.50
2023-09-30T11:53:33.164Z,1.75
2023-09-30T11:56:00.791Z,2.00
2023-09-30T11:58:27.962Z,2.00
2023-09-30T12:00:55.181Z,1.60
2023-09-30T12:03:22.807Z,2.00
2023-09-30T12:05:49.589Z,2.00
2023-09-30T12:08:16.100Z,2.00
2023-09-30T12:10:42.654Z,2.75
2023-09-30T12:13:09.270Z,2.00
2023-09-30T12:15:35.704Z,2.75
2023-09-30T12:18:02.223Z,2.50
2023-09-30T12:20:29.089Z,1.25
2023-09-30T12:22:55.596Z,4.75
2023-09-30T12:25:22.826Z,5.00
2023-09-30T12:27:49.984Z,1.00
2023-09-30T12:30:18.170Z,2.75
2023-09-30T12:32:44.805Z,2.50
2023-09-30T12:35:11.552Z,2.00
2023-09-30T12:37:39.730Z,2.00
2023-09-30T12:40:08.146Z,4.75
2023-09-30T12:42:36.365Z,2.50
2023-09-30T12:45:02.982Z,3.00
2023-09-30T12:47:29.535Z,4.00
2023-09-30T12:49:57.127Z,5.00
2023-09-30T12:52:24.871Z,3.00
2023-09-30T12:54:51.658Z,1.20
2023-09-30T12:57:19.502Z,4.20
2023-09-30T12:59:50.473Z,2.00
2023-09-30T13:02:19.383Z,2.40
2023-09-30T13:04:46.136Z,2.40
2023-09-30T13:07:13.084Z,2.40
2023-09-30T13:09:39.981Z,2.00
2023-09-30T13:12:08.046Z,4.00
2023-09-30T13:14:34.565Z,4.00
2023-09-30T13:17:02.269Z,8.75
2023-09-30T13:19:28.828Z,3.75
2023-09-30T13:21:56.581Z,0.40
2023-09-30T13:24:23.719Z,2.60
2023-09-30T13:26:50.331Z,2.00
2023-09-30T13:29:17.550Z,13.00
2023-09-30T13:31:44.762Z,1.50
2023-09-30T13:34:11.392Z,0.40
2023-09-30T13:36:37.915Z,1.00
2023-09-30T13:39:06.662Z,2.00
2023-09-30T13:41:37.014Z,1.50
2023-09-30T13:44:03.622Z,1.00
2023-09-30T13:46:31.972Z,1.00
2023-09-30T13:48:59.321Z,3.75
2023-09-30T13:51:27.255Z,2.00
2023-09-30T13:53:54.491Z,4.50
2023-09-30T13:56:21.545Z,7.50
2023-09-30T13:58:49.912Z,5.00
2023-09-30T14:01:16.582Z,3.00
2023-09-30T14:03:43.154Z,4.75
2023-09-30T14:06:16.233Z,3.75
2023-09-30T14:08:43.922Z,4.00
2023-09-30T14:11:10.689Z,4.00
2023-09-30T14:13:37.201Z,3.00
2023-09-30T14:16:03.783Z,5.00
2023-09-30T14:18:30.448Z,5.00
2023-09-30T14:20:57.021Z,2.00
2023-09-30T14:23:24.926Z,1.00
2023-09-30T14:25:55.646Z,1.00
2023-09-30T14:28:22.150Z,1.00
2023-09-30T14:30:51.300Z,3.00
2023-09-30T14:33:18.211Z,2.80
2023-09-30T14:35:46.377Z,2.00
2023-09-30T14:38:13.438Z,2.00
2023-09-30T14:40:43.409Z,2.25
2023-09-30T14:43:10.995Z,1.40
2023-09-30T14:45:40.732Z,2.00
2023-09-30T14:48:07.993Z,2.50
2023-09-30T14:50:34.509Z,5.00
2023-09-30T14:53:01.276Z,5.75
2023-09-30T14:55:27.764Z,6.00
2023-09-30T14:57:55.142Z,7.75
2023-09-30T15:00:23.829Z,8.00
2023-09-30T15:02:51.444Z,4.00
2023-09-30T15:05:18.087Z,11.00
2023-09-30T15:07:44.657Z,5.50
2023-09-30T15:10:11.245Z,6.50
2023-09-30T15:12:37.740Z,4.00
2023-09-30T15:15:05.161Z,8.00
2023-09-30T15:17:31.876Z,7.00
2023-09-30T15:19:59.097Z,6.00
2023-09-30T15:22:25.544Z,6.00
2023-09-30T15:24:51.965Z,5.50
2023-09-30T15:27:19.544Z,10.25
2023-09-30T15:29:46.243Z,12.25
2023-09-30T15:32:13.261Z,21.00
2023-09-30T15:34:41.485Z,20.25
2023-09-30T15:37:08.551Z,25.00
2023-09-30T15:39:38.961Z,34.00
2023-09-30T15:42:05.507Z,20.00
2023-09-30T15:44:32.044Z,18.50
2023-09-30T15:46:58.534Z,24.00
2023-09-30T15:49:25.077Z,21.00
2023-09-30T15:51:51.714Z,24.50
2023-09-30T15:54:18.211Z,24.25
2023-09-30T15:56:55.751Z,11.50
2023-09-30T15:59:22.619Z,21.25
2023-09-30T16:01:50.304Z,19.75
2023-09-30T16:04:17.059Z,19.50
2023-09-30T16:06:43.672Z,16.25
2023-09-30T16:09:10.392Z,20.50
2023-09-30T16:11:36.810Z,14.00
2023-09-30T16:14:04.680Z,11.00
2023-09-30T16:16:31.438Z,14.25
2023-09-30T16:18:58.122Z,17.00
2023-09-30T16:21:28.463Z,22.50
2023-09-30T16:23:55.650Z,23.25
2023-09-30T16:26:22.354Z,26.25
2023-09-30T16:28:48.790Z,25.75
2023-09-30T16:31:15.419Z,24.75
2023-09-30T16:33:43.115Z,22.00
2023-09-30T16:36:09.921Z,19.25
2023-09-30T16:38:36.430Z,15.75
2023-09-30T16:41:03.737Z,17.50
2023-09-30T16:43:30.389Z,8.00
2023-09-30T16:46:00.029Z,6.50
2023-09-30T16:48:26.554Z,3.50
2023-09-30T16:50:53.077Z,5.75
2023-09-30T16:53:21.360Z,4.25
2023-09-30T16:55:48.252Z,8.50
2023-09-30T16:58:14.797Z,7.25
2023-09-30T17:00:41.564Z,8.75
2023-09-30T17:03:08.095Z,5.50
2023-09-30T17:05:38.013Z,5.00
2023-09-30T17:08:05.460Z,7.75
2023-09-30T17:10:32.100Z,8.00
2023-09-30T17:12:58.569Z,8.00
2023-09-30T17:15:25.101Z,8.50
2023-09-30T17:17:51.665Z,8.00
2023-09-30T17:20:18.947Z,8.25
2023-09-30T17:22:45.361Z,10.00
2023-09-30T17:25:11.988Z,11.00
2023-09-30T17:27:38.934Z,9.50
2023-09-30T17:30:06.025Z,10.75
2023-09-30T17:32:32.482Z,9.50
2023-09-30T17:34:59.100Z,11.75
2023-09-30T17:37:27.118Z,8.50
2023-09-30T17:39:53.727Z,9.00
2023-09-30T17:42:20.989Z,8.50
2023-09-30T17:44:47.570Z,10.25
2023-09-30T17:47:14.003Z,8.75
2023-09-30T17:49:40.543Z,9.00
2023-09-30T17:52:07.208Z,9.25
2023-09-30T17:54:34.597Z,8.75
2023-09-30T17:57:01.027Z,8.25
2023-09-30T17:59:27.500Z,8.00
2023-09-30T18:01:53.953Z,7.25
2023-09-30T18:04:20.444Z,6.00
2023-09-30T18:06:47.009Z,8.00
2023-09-30T18:09:13.948Z,8.00
2023-09-30T18:11:40.690Z,8.75
2023-09-30T18:14:07.855Z,9.50
2023-09-30T18:16:34.327Z,8.25
2023-09-30T18:19:00.918Z,9.00
2023-09-30T18:21:27.517Z,9.00
2023-09-30T18:23:54.090Z,7.00
2023-09-30T18:26:20.850Z,9.75
2023-09-30T18:28:47.466Z,8.50
2023-09-30T18:31:20.244Z,7.50
2023-09-30T18:33:46.900Z,8.00
2023-09-30T18:36:13.448Z,7.75
2023-09-30T18:38:40.244Z,10.00
2023-09-30T18:41:14.924Z,8.50
2023-09-30T18:43:41.513Z,10.00
2023-09-30T18:46:10.680Z,10.75
2023-09-30T18:48:37.403Z,10.00
2023-09-30T18:51:03.898Z,11.75
2023-09-30T18:53:30.482Z,11.50
2023-09-30T18:55:57.873Z,16.25
2023-09-30T18:58:24.560Z,14.75
2023-09-30T19:00:51.055Z,17.75
2023-09-30T19:03:17.806Z,20.50
2023-09-30T19:05:44.593Z,20.25
2023-09-30T19:08:11.424Z,24.00
2023-09-30T19:10:42.683Z,24.00
2023-09-30T19:13:09.341Z,24.00
2023-09-30T19:15:35.984Z,23.00
2023-09-30T19:18:02.877Z,22.67
2023-09-30T19:20:29.471Z,28.00
2023-09-30T19:22:55.961Z,25.67
2023-09-30T19:25:22.920Z,25.67
2023-09-30T19:27:49.445Z,27.00
2023-09-30T19:30:16.142Z,25.00
2023-09-30T19:32:42.999Z,24.67
2023-09-30T19:35:10.047Z,27.00
2023-09-30T19:37:36.780Z,26.00
2023-09-30T19:40:04.766Z,26.67
2023-09-30T19:42:31.592Z,24.00
2023-09-30T19:44:58.244Z,21.50
2023-09-30T19:47:28.269Z,22.00
2023-09-30T19:49:55.093Z,19.00
2023-09-30T19:52:21.843Z,19.00
2023-09-30T19:54:48.377Z,20.50
2023-09-30T19:57:14.885Z,19.50
2023-09-30T19:59:41.412Z,15.50
2023-09-30T20:02:08.700Z,10.25
2023-09-30T20:04:35.517Z,14.25
2023-09-30T20:07:05.259Z,14.50
2023-09-30T20:09:32.241Z,13.50
2023-09-30T20:12:03.344Z,14.50
2023-09-30T20:14:33.281Z,12.75
2023-09-30T20:16:59.998Z,10.00
2023-09-30T20:19:27.436Z,12.00
2023-09-30T20:21:54.029Z,10.75
2023-09-30T20:24:20.650Z,11.25
2023-09-30T20:26:47.144Z,10.00
2023-09-30T20:29:14.534Z,12.00
2023-09-30T20:31:41.214Z,9.00
2023-09-30T20:34:09.265Z,8.75
2023-09-30T20:36:35.803Z,10.50
2023-09-30T20:39:02.893Z,12.00
2023-09-30T20:41:30.287Z,9.75
2023-09-30T20:43:57.536Z,9.00
2023-09-30T20:46:26.001Z,8.75
2023-09-30T20:48:53.590Z,10.00
2023-09-30T20:51:20.315Z,9.75
2023-09-30T20:53:49.103Z,10.00
2023-09-30T20:56:15.602Z,8.50
2023-09-30T20:58:42.151Z,10.00
2023-09-30T21:01:12.373Z,7.50
2023-09-30T21:03:39.555Z,10.25
2023-09-30T21:06:09.651Z,7.75
2023-09-30T21:08:37.890Z,8.50
2023-09-30T21:11:05.155Z,6.75
2023-09-30T21:13:31.789Z,9.50
2023-09-30T21:15:58.430Z,9.50
2023-09-30T21:18:24.909Z,9.00
2023-09-30T21:20:51.800Z,10.00
2023-09-30T21:23:18.429Z,12.25
2023-09-30T21:25:45.897Z,9.00
2023-09-30T21:28:12.448Z,10.00
2023-09-30T21:30:39.239Z,13.00
2023-09-30T21:33:06.368Z,10.75
2023-09-30T21:35:32.906Z,11.00
2023-09-30T21:37:59.575Z,9.25
2023-09-30T21:40:26.091Z,10.25
2023-09-30T21:42:52.618Z,9.75
2023-09-30T21:45:19.097Z,9.00
2023-09-30T21:47:45.690Z,7.25
2023-09-30T21:50:12.682Z,10.00
2023-09-30T21:52:39.296Z,11.00
2023-09-30T21:55:06.338Z,10.00
2023-09-30T21:57:32.870Z,12.00
2023-09-30T21:59:59.574Z,10.00
2023-09-30T22:02:28.262Z,9.25
2023-09-30T22:04:56.501Z,11.00
2023-09-30T22:07:25.194Z,9.75
2023-09-30T22:09:51.638Z,12.50
2023-09-30T22:12:18.178Z,10.25
2023-09-30T22:14:44.591Z,9.25
2023-09-30T22:17:11.169Z,10.25
2023-09-30T22:19:40.815Z,8.75
2023-09-30T22:22:14.687Z,9.50
2023-09-30T22:24:41.254Z,11.00
2023-09-30T22:27:07.790Z,9.75
2023-09-30T22:29:34.275Z,11.00
2023-09-30T22:32:00.995Z,10.00
2023-09-30T22:34:27.547Z,9.00
2023-09-30T22:36:54.053Z,9.00
2023-09-30T22:39:21.383Z,8.50
2023-09-30T22:41:47.943Z,10.50
2023-09-30T22:44:14.492Z,9.50
2023-09-30T22:46:41.115Z,11.50
2023-09-30T22:49:08.168Z,10.25
2023-09-30T22:51:34.817Z,12.50
2023-09-30T22:54:01.386Z,9.00
2023-09-30T22:56:30.669Z,11.00
2023-09-30T22:58:57.568Z,10.50
2023-09-30T23:01:29.773Z,12.50
2023-09-30T23:03:58.432Z,10.00
2023-09-30T23:06:27.111Z,11.00
2023-09-30T23:08:55.896Z,10.00
2023-09-30T23:11:22.310Z,10.25
2023-09-30T23:13:49.000Z,10.75
2023-09-30T23:16:16.640Z,10.00
2023-09-30T23:18:44.254Z,9.00
2023-09-30T23:21:11.092Z,8.50
2023-09-30T23:23:37.628Z,13.00
2023-09-30T23:26:07.456Z,10.00
2023-09-30T23:28:41.413Z,9.50
2023-09-30T23:31:09.695Z,11.00
2023-09-30T23:33:36.127Z,9.50
2023-09-30T23:36:03.953Z,8.75
2023-09-30T23:38:31.669Z,7.75
2023-09-30T23:41:01.753Z,9.50
2023-09-30T23:43:30.964Z,9.75
2023-09-30T23:45:57.563Z,9.00
2023-09-30T23:48:25.163Z,9.75
2023-09-30T23:50:54.440Z,10.00
2023-09-30T23:53:24.096Z,8.75
2023-09-30T23:55:50.794Z,9.00
2023-09-30T23:58:18.035Z,9.75
